Detall de PIREP

Printer-friendly versionPDF version

[2014/03/18 09:52:00]
Flight IATA:CT3100
Pilot Number:042
Company ICAO:CAT
Aircraft Type:AT72/F
PAX:25
Departing Airport: LIEA
Destination Airport: LEBL
Alternate Airport:LERS
Online: VATSIM
Route:GINOX M601 MUREN G23 VERSO
Flight Level:F190
No Slew and time accel
No pause
Crash detect
Detect pilot in Cockpit between each 30 and 45 minutes
09:52 Zero fuel Weight: 40069 Lbs, Fuel Weight: 11199 Lbs
09:52 VATSIM:LIEA 180920Z 19005KT CAVOK 16/11 Q1023
09:52 VATSIM:LEBL 180930Z 22009KT CAVOK 16/12 Q1021 NOSIG
09:52 VOICE CATALONIAN
09:57 Parking Brakes off
10:01 Take-off
10:01 Take off Weight: 51207 Lbs
10:01 Wind: 189º @ 005 Knots Heading: 203º
10:01 POS N40º 37´ 55´´ E008º 17´ 26´´
10:01 Gear Up: 115 Knots
10:12 TOC
10:12 Fuel Weight: 10663 Lb
10:14 TOD
10:14 Fuel Weight: 10575 Lb
10:14 TOC
10:14 Fuel Weight: 10570 Lb
10:16 Wind:185º@012 Knots Heading: 271º Ground Speed: 289 Knots Altitude 19274 ft
10:31 Wind:286º@000 Knots Heading: 272º Ground Speed: 284 Knots Altitude 19248 ft
10:46 Wind:218º@010 Knots Heading: 276º Ground Speed: 279 Knots Altitude 19242 ft
10:54 TOD
10:54 Fuel Weight: 9282 Lb
11:01 Wind:207º@012 Knots Heading: 274º Ground Speed: 260 Knots Altitude 10062 ft
11:10 Flaps:1 at 182 Knots
11:10 Gear Down: 180 Knots
11:10 Flaps:2 at 180 Knots
11:14 TouchDown:Rate -196 ft/min Speed: 110 Knots
11:14 VATSIM:LEBL 181100Z 20007KT 160V240 CAVOK 16/12 Q1021 NOSIG
11:14 Land
11:14 Wind:216º@007 Knots
11:14 Heading: 243º
11:14 Flight Duration: 01:13
11:14 Landing Weight: 49083 Lbs
11:14 POS N41º 17´ 56´´ E002º 05´ 03´´
11:17 Parking brakes on
11:17 Block to Block Duration: 01:20
11:17 Final Fuel: 8990 Lbls
11:17 Spent Fuel: 2208 Lbls
11:17 Flight Length: 243 NM
11:17 TOD Land Length: 73 NM

Exportar CSV

Powered by Drupal - Modified by Danger4k